sensor_id;sensor_type;location;lat;lon;timestamp;temperature;humidity
68215;DHT22;55036;52.138;5.236;2023-04-03T00:01:05;5.60;66.40
68215;DHT22;55036;52.138;5.236;2023-04-03T00:03:32;5.60;67.40
68215;DHT22;55036;52.138;5.236;2023-04-03T00:05:59;5.60;66.50
68215;DHT22;55036;52.138;5.236;2023-04-03T00:08:26;5.60;66.40
68215;DHT22;55036;52.138;5.236;2023-04-03T00:10:53;5.60;66.40
68215;DHT22;55036;52.138;5.236;2023-04-03T00:13:19;5.60;66.50
68215;DHT22;55036;52.138;5.236;2023-04-03T00:15:46;5.50;66.30
68215;DHT22;55036;52.138;5.236;2023-04-03T00:18:13;5.40;66.20
68215;DHT22;55036;52.138;5.236;2023-04-03T00:20:39;5.40;66.30
68215;DHT22;55036;52.138;5.236;2023-04-03T00:23:06;5.30;66.60
68215;DHT22;55036;52.138;5.236;2023-04-03T00:25:33;5.30;66.50
68215;DHT22;55036;52.138;5.236;2023-04-03T00:28:00;5.20;66.70
68215;DHT22;55036;52.138;5.236;2023-04-03T00:30:27;5.30;66.90
68215;DHT22;55036;52.138;5.236;2023-04-03T00:32:54;5.30;66.80
68215;DHT22;55036;52.138;5.236;2023-04-03T00:35:22;5.40;66.80
68215;DHT22;55036;52.138;5.236;2023-04-03T00:37:51;5.40;66.60
68215;DHT22;55036;52.138;5.236;2023-04-03T00:40:19;5.30;66.50
68215;DHT22;55036;52.138;5.236;2023-04-03T00:42:48;5.20;66.50
68215;DHT22;55036;52.138;5.236;2023-04-03T00:45:36;5.10;66.60
68215;DHT22;55036;52.138;5.236;2023-04-03T00:48:05;5.10;66.70
68215;DHT22;55036;52.138;5.236;2023-04-03T00:50:36;5.20;67.00
68215;DHT22;55036;52.138;5.236;2023-04-03T00:53:06;5.20;66.80
68215;DHT22;55036;52.138;5.236;2023-04-03T00:55:35;5.20;66.80
68215;DHT22;55036;52.138;5.236;2023-04-03T00:58:03;5.20;66.90
68215;DHT22;55036;52.138;5.236;2023-04-03T01:00:34;5.20;66.80
68215;DHT22;55036;52.138;5.236;2023-04-03T01:03:02;5.10;66.80
68215;DHT22;55036;52.138;5.236;2023-04-03T01:05:29;5.10;66.70
68215;DHT22;55036;52.138;5.236;2023-04-03T01:07:56;5.00;67.00
68215;DHT22;55036;52.138;5.236;2023-04-03T01:10:24;5.10;67.10
68215;DHT22;55036;52.138;5.236;2023-04-03T01:12:52;5.10;67.20
68215;DHT22;55036;52.138;5.236;2023-04-03T01:15:22;5.10;67.10
68215;DHT22;55036;52.138;5.236;2023-04-03T01:17:51;5.00;67.10
68215;DHT22;55036;52.138;5.236;2023-04-03T01:25:51;5.00;67.60
68215;DHT22;55036;52.138;5.236;2023-04-03T01:28:28;5.00;68.00
68215;DHT22;55036;52.138;5.236;2023-04-03T01:33:45;4.90;68.00
68215;DHT22;55036;52.138;5.236;2023-04-03T01:36:20;4.90;69.20
68215;DHT22;55036;52.138;5.236;2023-04-03T01:38:47;4.90;68.40
68215;DHT22;55036;52.138;5.236;2023-04-03T01:41:15;4.70;68.60
68215;DHT22;55036;52.138;5.236;2023-04-03T01:43:42;4.80;68.50
68215;DHT22;55036;52.138;5.236;2023-04-03T01:46:09;4.70;68.80
68215;DHT22;55036;52.138;5.236;2023-04-03T01:48:36;4.70;68.70
68215;DHT22;55036;52.138;5.236;2023-04-03T01:51:03;4.70;68.90
68215;DHT22;55036;52.138;5.236;2023-04-03T01:53:30;4.70;69.00
68215;DHT22;55036;52.138;5.236;2023-04-03T01:55:56;4.70;69.00
68215;DHT22;55036;52.138;5.236;2023-04-03T01:58:23;4.60;69.00
68215;DHT22;55036;52.138;5.236;2023-04-03T02:00:51;4.60;69.10
68215;DHT22;55036;52.138;5.236;2023-04-03T02:03:18;4.60;69.20
68215;DHT22;55036;52.138;5.236;2023-04-03T02:05:45;4.60;69.40
68215;DHT22;55036;52.138;5.236;2023-04-03T02:08:12;4.60;69.40
68215;DHT22;55036;52.138;5.236;2023-04-03T02:10:39;4.60;69.60
68215;DHT22;55036;52.138;5.236;2023-04-03T02:13:06;4.50;69.80
68215;DHT22;55036;52.138;5.236;2023-04-03T02:15:33;4.50;69.50
68215;DHT22;55036;52.138;5.236;2023-04-03T02:17:59;4.50;69.50
68215;DHT22;55036;52.138;5.236;2023-04-03T02:20:26;4.40;69.90
68215;DHT22;55036;52.138;5.236;2023-04-03T02:22:53;4.40;69.70
68215;DHT22;55036;52.138;5.236;2023-04-03T02:25:20;4.40;69.60
68215;DHT22;55036;52.138;5.236;2023-04-03T02:27:46;4.30;69.60
68215;DHT22;55036;52.138;5.236;2023-04-03T02:30:13;4.30;69.80
68215;DHT22;55036;52.138;5.236;2023-04-03T02:32:42;4.10;71.00
68215;DHT22;55036;52.138;5.236;2023-04-03T02:35:09;4.00;70.70
68215;DHT22;55036;52.138;5.236;2023-04-03T02:37:37;3.90;70.90
68215;DHT22;55036;52.138;5.236;2023-04-03T02:40:04;3.70;72.00
68215;DHT22;55036;52.138;5.236;2023-04-03T02:42:32;3.70;72.20
68215;DHT22;55036;52.138;5.236;2023-04-03T02:44:58;3.60;71.90
68215;DHT22;55036;52.138;5.236;2023-04-03T02:47:27;3.60;71.80
68215;DHT22;55036;52.138;5.236;2023-04-03T02:49:54;3.70;72.00
68215;DHT22;55036;52.138;5.236;2023-04-03T02:52:21;3.60;72.40
68215;DHT22;55036;52.138;5.236;2023-04-03T02:54:48;3.60;72.30
68215;DHT22;55036;52.138;5.236;2023-04-03T02:57:14;3.60;72.30
68215;DHT22;55036;52.138;5.236;2023-04-03T02:59:41;3.60;72.50
68215;DHT22;55036;52.138;5.236;2023-04-03T03:02:08;3.70;72.10
68215;DHT22;55036;52.138;5.236;2023-04-03T03:04:35;3.50;72.70
68215;DHT22;55036;52.138;5.236;2023-04-03T03:07:03;3.50;72.80
68215;DHT22;55036;52.138;5.236;2023-04-03T03:09:30;3.40;73.30
68215;DHT22;55036;52.138;5.236;2023-04-03T03:11:57;3.30;74.20
68215;DHT22;55036;52.138;5.236;2023-04-03T03:14:24;3.10;75.50
68215;DHT22;55036;52.138;5.236;2023-04-03T03:16:50;3.00;75.80
68215;DHT22;55036;52.138;5.236;2023-04-03T03:19:18;3.00;76.00
68215;DHT22;55036;52.138;5.236;2023-04-03T03:21:44;3.00;76.70
68215;DHT22;55036;52.138;5.236;2023-04-03T03:24:11;2.90;76.30
68215;DHT22;55036;52.138;5.236;2023-04-03T03:26:38;3.00;75.70
68215;DHT22;55036;52.138;5.236;2023-04-03T03:29:05;3.10;75.40
68215;DHT22;55036;52.138;5.236;2023-04-03T03:31:31;3.10;75.50
68215;DHT22;55036;52.138;5.236;2023-04-03T03:33:58;3.10;74.80
68215;DHT22;55036;52.138;5.236;2023-04-03T03:36:25;3.20;74.80
68215;DHT22;55036;52.138;5.236;2023-04-03T03:38:52;3.20;74.80
68215;DHT22;55036;52.138;5.236;2023-04-03T03:41:18;3.20;74.90
68215;DHT22;55036;52.138;5.236;2023-04-03T03:43:45;3.20;74.80
68215;DHT22;55036;52.138;5.236;2023-04-03T03:46:12;3.20;74.60
68215;DHT22;55036;52.138;5.236;2023-04-03T03:48:39;3.30;74.60
68215;DHT22;55036;52.138;5.236;2023-04-03T03:51:05;3.30;74.60
68215;DHT22;55036;52.138;5.236;2023-04-03T03:53:32;3.40;74.60
68215;DHT22;55036;52.138;5.236;2023-04-03T03:55:59;3.40;74.60
68215;DHT22;55036;52.138;5.236;2023-04-03T03:58:26;3.40;74.30
68215;DHT22;55036;52.138;5.236;2023-04-03T04:00:53;3.30;74.50
68215;DHT22;55036;52.138;5.236;2023-04-03T04:03:20;3.30;74.30
68215;DHT22;55036;52.138;5.236;2023-04-03T04:05:47;3.30;74.20
68215;DHT22;55036;52.138;5.236;2023-04-03T04:08:14;3.20;74.20
68215;DHT22;55036;52.138;5.236;2023-04-03T04:10:41;3.20;74.60
68215;DHT22;55036;52.138;5.236;2023-04-03T04:13:07;3.10;75.00
68215;DHT22;55036;52.138;5.236;2023-04-03T04:15:34;3.20;75.10
68215;DHT22;55036;52.138;5.236;2023-04-03T04:18:01;3.10;75.30
68215;DHT22;55036;52.138;5.236;2023-04-03T04:20:28;3.10;75.40
68215;DHT22;55036;52.138;5.236;2023-04-03T04:22:55;3.10;75.60
68215;DHT22;55036;52.138;5.236;2023-04-03T04:25:22;3.00;75.30
68215;DHT22;55036;52.138;5.236;2023-04-03T04:27:48;2.90;75.60
68215;DHT22;55036;52.138;5.236;2023-04-03T04:30:15;2.90;76.30
68215;DHT22;55036;52.138;5.236;2023-04-03T04:32:42;2.90;76.00
68215;DHT22;55036;52.138;5.236;2023-04-03T04:35:09;3.00;76.00
68215;DHT22;55036;52.138;5.236;2023-04-03T04:37:36;2.70;77.40
68215;DHT22;55036;52.138;5.236;2023-04-03T04:40:03;2.70;77.00
68215;DHT22;55036;52.138;5.236;2023-04-03T04:42:29;2.80;76.60
68215;DHT22;55036;52.138;5.236;2023-04-03T04:44:56;2.90;76.50
68215;DHT22;55036;52.138;5.236;2023-04-03T04:47:23;2.90;76.80
68215;DHT22;55036;52.138;5.236;2023-04-03T04:49:50;3.00;76.40
68215;DHT22;55036;52.138;5.236;2023-04-03T04:52:17;2.90;77.00
68215;DHT22;55036;52.138;5.236;2023-04-03T04:54:44;2.80;77.60
68215;DHT22;55036;52.138;5.236;2023-04-03T04:57:11;2.80;77.30
68215;DHT22;55036;52.138;5.236;2023-04-03T04:59:37;2.80;77.00
68215;DHT22;55036;52.138;5.236;2023-04-03T05:02:04;2.90;76.70
68215;DHT22;55036;52.138;5.236;2023-04-03T05:04:31;2.80;77.70
68215;DHT22;55036;52.138;5.236;2023-04-03T05:06:58;2.60;78.10
68215;DHT22;55036;52.138;5.236;2023-04-03T05:09:26;2.80;77.40
68215;DHT22;55036;52.138;5.236;2023-04-03T05:11:53;2.90;77.20
68215;DHT22;55036;52.138;5.236;2023-04-03T05:14:20;3.00;77.40
68215;DHT22;55036;52.138;5.236;2023-04-03T05:16:46;3.10;77.10
68215;DHT22;55036;52.138;5.236;2023-04-03T05:19:16;3.10;77.30
68215;DHT22;55036;52.138;5.236;2023-04-03T05:21:43;3.20;76.80
68215;DHT22;55036;52.138;5.236;2023-04-03T05:24:10;3.20;77.00
68215;DHT22;55036;52.138;5.236;2023-04-03T05:26:36;3.20;76.80
68215;DHT22;55036;52.138;5.236;2023-04-03T05:29:03;3.30;76.60
68215;DHT22;55036;52.138;5.236;2023-04-03T05:31:30;3.30;76.60
68215;DHT22;55036;52.138;5.236;2023-04-03T05:33:57;3.40;76.70
68215;DHT22;55036;52.138;5.236;2023-04-03T05:36:24;3.40;76.60
68215;DHT22;55036;52.138;5.236;2023-04-03T05:38:52;3.40;76.60
68215;DHT22;55036;52.138;5.236;2023-04-03T05:41:19;3.50;76.60
68215;DHT22;55036;52.138;5.236;2023-04-03T05:43:47;3.50;76.50
68215;DHT22;55036;52.138;5.236;2023-04-03T05:46:16;3.50;76.30
68215;DHT22;55036;52.138;5.236;2023-04-03T05:48:44;3.50;76.30
68215;DHT22;55036;52.138;5.236;2023-04-03T05:51:19;3.50;76.60
68215;DHT22;55036;52.138;5.236;2023-04-03T05:53:48;3.50;76.80
68215;DHT22;55036;52.138;5.236;2023-04-03T05:56:17;3.50;76.70
68215;DHT22;55036;52.138;5.236;2023-04-03T05:58:43;3.60;76.40
68215;DHT22;55036;52.138;5.236;2023-04-03T06:01:10;3.70;76.80
68215;DHT22;55036;52.138;5.236;2023-04-03T06:03:38;3.90;77.10
68215;DHT22;55036;52.138;5.236;2023-04-03T06:06:06;4.00;77.00
68215;DHT22;55036;52.138;5.236;2023-04-03T06:08:34;4.20;77.20
68215;DHT22;55036;52.138;5.236;2023-04-03T06:11:01;4.50;78.20
68215;DHT22;55036;52.138;5.236;2023-04-03T06:13:28;4.90;76.20
68215;DHT22;55036;52.138;5.236;2023-04-03T06:15:55;5.50;75.80
68215;DHT22;55036;52.138;5.236;2023-04-03T06:18:23;5.80;71.00
68215;DHT22;55036;52.138;5.236;2023-04-03T06:20:49;5.80;73.20
68215;DHT22;55036;52.138;5.236;2023-04-03T06:23:16;5.90;70.10
68215;DHT22;55036;52.138;5.236;2023-04-03T06:25:43;5.90;71.70
68215;DHT22;55036;52.138;5.236;2023-04-03T06:28:10;5.90;69.30
68215;DHT22;55036;52.138;5.236;2023-04-03T06:30:37;5.50;71.50
68215;DHT22;55036;52.138;5.236;2023-04-03T06:33:04;5.40;72.00
68215;DHT22;55036;52.138;5.236;2023-04-03T06:35:31;5.30;71.20
68215;DHT22;55036;52.138;5.236;2023-04-03T06:37:58;5.10;71.50
68215;DHT22;55036;52.138;5.236;2023-04-03T06:40:25;4.90;72.10
68215;DHT22;55036;52.138;5.236;2023-04-03T06:42:53;4.80;72.40
68215;DHT22;55036;52.138;5.236;2023-04-03T06:45:19;4.90;72.40
68215;DHT22;55036;52.138;5.236;2023-04-03T06:47:46;4.90;72.20
68215;DHT22;55036;52.138;5.236;2023-04-03T06:50:13;4.90;72.90
68215;DHT22;55036;52.138;5.236;2023-04-03T06:52:41;4.80;72.60
68215;DHT22;55036;52.138;5.236;2023-04-03T06:55:09;4.90;72.90
68215;DHT22;55036;52.138;5.236;2023-04-03T06:57:36;5.00;72.40
68215;DHT22;55036;52.138;5.236;2023-04-03T07:00:05;5.00;71.90
68215;DHT22;55036;52.138;5.236;2023-04-03T07:02:32;5.00;72.00
68215;DHT22;55036;52.138;5.236;2023-04-03T07:04:59;5.10;71.80
68215;DHT22;55036;52.138;5.236;2023-04-03T07:07:26;5.10;71.20
68215;DHT22;55036;52.138;5.236;2023-04-03T07:09:53;5.10;70.90
68215;DHT22;55036;52.138;5.236;2023-04-03T07:12:20;5.10;70.40
68215;DHT22;55036;52.138;5.236;2023-04-03T07:14:47;5.20;71.00
68215;DHT22;55036;52.138;5.236;2023-04-03T07:17:13;5.10;70.90
68215;DHT22;55036;52.138;5.236;2023-04-03T07:19:41;5.30;70.60
68215;DHT22;55036;52.138;5.236;2023-04-03T07:22:07;5.40;70.40
68215;DHT22;55036;52.138;5.236;2023-04-03T07:24:34;5.50;69.70
68215;DHT22;55036;52.138;5.236;2023-04-03T07:27:02;5.60;70.60
68215;DHT22;55036;52.138;5.236;2023-04-03T07:29:29;5.80;69.40
68215;DHT22;55036;52.138;5.236;2023-04-03T07:31:56;6.00;70.10
68215;DHT22;55036;52.138;5.236;2023-04-03T07:34:23;6.00;66.50
68215;DHT22;55036;52.138;5.236;2023-04-03T07:36:50;6.10;67.90
68215;DHT22;55036;52.138;5.236;2023-04-03T07:39:17;6.10;66.20
68215;DHT22;55036;52.138;5.236;2023-04-03T07:41:43;6.00;67.30
68215;DHT22;55036;52.138;5.236;2023-04-03T07:44:10;5.90;65.50
68215;DHT22;55036;52.138;5.236;2023-04-03T07:46:37;5.90;66.00
68215;DHT22;55036;52.138;5.236;2023-04-03T07:49:04;6.00;65.80
68215;DHT22;55036;52.138;5.236;2023-04-03T07:51:31;6.20;66.00
68215;DHT22;55036;52.138;5.236;2023-04-03T07:53:58;6.40;65.80
68215;DHT22;55036;52.138;5.236;2023-04-03T07:56:25;6.40;65.00
68215;DHT22;55036;52.138;5.236;2023-04-03T07:58:51;6.50;64.20
68215;DHT22;55036;52.138;5.236;2023-04-03T08:01:18;6.60;64.10
68215;DHT22;55036;52.138;5.236;2023-04-03T08:03:45;6.60;63.10
68215;DHT22;55036;52.138;5.236;2023-04-03T08:06:12;6.80;63.50
68215;DHT22;55036;52.138;5.236;2023-04-03T08:08:42;6.80;60.70
68215;DHT22;55036;52.138;5.236;2023-04-03T08:11:10;6.90;59.40
68215;DHT22;55036;52.138;5.236;2023-04-03T08:13:37;7.00;58.10
68215;DHT22;55036;52.138;5.236;2023-04-03T08:16:12;7.00;58.40
68215;DHT22;55036;52.138;5.236;2023-04-03T08:18:39;7.20;58.00
68215;DHT22;55036;52.138;5.236;2023-04-03T08:21:08;7.30;57.90
68215;DHT22;55036;52.138;5.236;2023-04-03T08:23:35;7.60;53.00
68215;DHT22;55036;52.138;5.236;2023-04-03T08:26:13;7.70;55.30
68215;DHT22;55036;52.138;5.236;2023-04-03T08:28:40;7.90;53.50
68215;DHT22;55036;52.138;5.236;2023-04-03T08:31:10;7.90;54.50
68215;DHT22;55036;52.138;5.236;2023-04-03T08:33:38;7.90;54.40
68215;DHT22;55036;52.138;5.236;2023-04-03T08:36:14;7.90;55.20
68215;DHT22;55036;52.138;5.236;2023-04-03T08:38:42;7.80;55.40
68215;DHT22;55036;52.138;5.236;2023-04-03T08:41:31;8.10;49.50
68215;DHT22;55036;52.138;5.236;2023-04-03T08:44:37;8.10;50.30
68215;DHT22;55036;52.138;5.236;2023-04-03T08:49:53;8.30;48.00
68215;DHT22;55036;52.138;5.236;2023-04-03T08:52:54;8.30;44.00
68215;DHT22;55036;52.138;5.236;2023-04-03T08:55:44;8.00;45.90
68215;DHT22;55036;52.138;5.236;2023-04-03T08:58:30;8.20;48.60
68215;DHT22;55036;52.138;5.236;2023-04-03T09:01:04;8.70;48.60
68215;DHT22;55036;52.138;5.236;2023-04-03T09:03:34;9.10;51.40
68215;DHT22;55036;52.138;5.236;2023-04-03T09:06:10;9.10;45.80
68215;DHT22;55036;52.138;5.236;2023-04-03T09:08:49;9.20;48.70
68215;DHT22;55036;52.138;5.236;2023-04-03T09:13:59;9.50;48.40
68215;DHT22;55036;52.138;5.236;2023-04-03T09:16:52;9.80;45.70
68215;DHT22;55036;52.138;5.236;2023-04-03T09:19:39;9.70;39.90
68215;DHT22;55036;52.138;5.236;2023-04-03T09:22:20;9.60;40.80
68215;DHT22;55036;52.138;5.236;2023-04-03T09:25:03;9.70;43.10
68215;DHT22;55036;52.138;5.236;2023-04-03T09:27:32;9.90;42.20
68215;DHT22;55036;52.138;5.236;2023-04-03T09:29:59;9.90;38.80
68215;DHT22;55036;52.138;5.236;2023-04-03T09:32:32;9.80;36.90
68215;DHT22;55036;52.138;5.236;2023-04-03T09:35:09;9.90;38.50
68215;DHT22;55036;52.138;5.236;2023-04-03T09:37:54;9.70;34.30
68215;DHT22;55036;52.138;5.236;2023-04-03T09:42:54;9.30;35.10
68215;DHT22;55036;52.138;5.236;2023-04-03T09:45:32;9.50;35.90
68215;DHT22;55036;52.138;5.236;2023-04-03T09:50:52;9.70;33.90
68215;DHT22;55036;52.138;5.236;2023-04-03T09:56:28;10.00;35.90
68215;DHT22;55036;52.138;5.236;2023-04-03T10:01:35;10.30;33.00
68215;DHT22;55036;52.138;5.236;2023-04-03T10:04:17;10.00;34.40
68215;DHT22;55036;52.138;5.236;2023-04-03T10:06:46;10.20;34.20
68215;DHT22;55036;52.138;5.236;2023-04-03T10:09:28;10.40;35.30
68215;DHT22;55036;52.138;5.236;2023-04-03T10:12:05;10.50;34.60
68215;DHT22;55036;52.138;5.236;2023-04-03T10:14:35;10.90;33.90
68215;DHT22;55036;52.138;5.236;2023-04-03T10:17:17;10.80;31.40
68215;DHT22;55036;52.138;5.236;2023-04-03T10:22:26;10.30;32.70
68215;DHT22;55036;52.138;5.236;2023-04-03T10:25:20;10.40;30.30
68215;DHT22;55036;52.138;5.236;2023-04-03T10:28:08;10.30;32.90
68215;DHT22;55036;52.138;5.236;2023-04-03T10:36:05;11.00;32.50
68215;DHT22;55036;52.138;5.236;2023-04-03T10:38:48;11.10;32.00
68215;DHT22;55036;52.138;5.236;2023-04-03T10:46:42;11.00;32.90
68215;DHT22;55036;52.138;5.236;2023-04-03T10:49:13;11.10;32.50
68215;DHT22;55036;52.138;5.236;2023-04-03T10:51:56;11.30;30.20
68215;DHT22;55036;52.138;5.236;2023-04-03T10:54:39;11.20;29.10
68215;DHT22;55036;52.138;5.236;2023-04-03T10:57:11;11.10;29.10
68215;DHT22;55036;52.138;5.236;2023-04-03T10:59:55;10.70;29.40
68215;DHT22;55036;52.138;5.236;2023-04-03T11:05:39;10.90;30.00
68215;DHT22;55036;52.138;5.236;2023-04-03T11:11:00;10.70;31.30
68215;DHT22;55036;52.138;5.236;2023-04-03T11:13:38;11.00;31.20
68215;DHT22;55036;52.138;5.236;2023-04-03T11:16:07;10.90;31.20
68215;DHT22;55036;52.138;5.236;2023-04-03T11:18:39;10.80;29.80
68215;DHT22;55036;52.138;5.236;2023-04-03T11:21:36;10.60;29.60
68215;DHT22;55036;52.138;5.236;2023-04-03T11:24:05;10.80;30.30
68215;DHT22;55036;52.138;5.236;2023-04-03T11:26:42;10.80;30.00
68215;DHT22;55036;52.138;5.236;2023-04-03T11:29:14;10.90;30.50
68215;DHT22;55036;52.138;5.236;2023-04-03T11:32:28;11.10;32.00
68215;DHT22;55036;52.138;5.236;2023-04-03T11:34:58;11.10;31.10
68215;DHT22;55036;52.138;5.236;2023-04-03T11:37:48;11.40;31.40
68215;DHT22;55036;52.138;5.236;2023-04-03T11:40:24;11.60;31.30
68215;DHT22;55036;52.138;5.236;2023-04-03T11:43:02;11.90;33.50
68215;DHT22;55036;52.138;5.236;2023-04-03T11:45:50;11.80;30.10
68215;DHT22;55036;52.138;5.236;2023-04-03T11:50:55;11.80;32.50
68215;DHT22;55036;52.138;5.236;2023-04-03T11:55:59;11.90;30.60
68215;DHT22;55036;52.138;5.236;2023-04-03T11:58:34;11.60;31.30
68215;DHT22;55036;52.138;5.236;2023-04-03T12:01:10;11.50;30.00
68215;DHT22;55036;52.138;5.236;2023-04-03T12:16:33;11.30;31.40
68215;DHT22;55036;52.138;5.236;2023-04-03T12:35:06;11.70;31.40
68215;DHT22;55036;52.138;5.236;2023-04-03T12:48:39;12.00;31.70
68215;DHT22;55036;52.138;5.236;2023-04-03T12:51:24;11.80;31.00
68215;DHT22;55036;52.138;5.236;2023-04-03T12:53:58;11.80;30.60
68215;DHT22;55036;52.138;5.236;2023-04-03T12:56:31;11.90;31.10
68215;DHT22;55036;52.138;5.236;2023-04-03T12:59:22;11.90;31.00
68215;DHT22;55036;52.138;5.236;2023-04-03T13:02:00;11.80;30.60
68215;DHT22;55036;52.138;5.236;2023-04-03T13:04:28;12.00;31.20
68215;DHT22;55036;52.138;5.236;2023-04-03T13:06:55;12.10;30.70
68215;DHT22;55036;52.138;5.236;2023-04-03T13:09:27;12.10;30.00
68215;DHT22;55036;52.138;5.236;2023-04-03T13:12:01;11.60;30.90
68215;DHT22;55036;52.138;5.236;2023-04-03T13:14:29;11.50;32.10
68215;DHT22;55036;52.138;5.236;2023-04-03T13:16:59;11.80;32.10
68215;DHT22;55036;52.138;5.236;2023-04-03T13:19:27;12.00;32.10
68215;DHT22;55036;52.138;5.236;2023-04-03T13:22:06;11.80;30.00
68215;DHT22;55036;52.138;5.236;2023-04-03T13:24:37;11.90;30.80
68215;DHT22;55036;52.138;5.236;2023-04-03T13:27:05;11.80;30.30
68215;DHT22;55036;52.138;5.236;2023-04-03T13:29:35;11.80;31.30
68215;DHT22;55036;52.138;5.236;2023-04-03T13:32:03;11.70;30.80
68215;DHT22;55036;52.138;5.236;2023-04-03T13:34:40;11.60;31.80
68215;DHT22;55036;52.138;5.236;2023-04-03T13:37:27;11.80;31.80
68215;DHT22;55036;52.138;5.236;2023-04-03T13:42:37;11.80;31.00
68215;DHT22;55036;52.138;5.236;2023-04-03T13:45:24;12.00;31.60
68215;DHT22;55036;52.138;5.236;2023-04-03T13:48:09;12.10;31.10
68215;DHT22;55036;52.138;5.236;2023-04-03T13:51:03;11.90;30.50
68215;DHT22;55036;52.138;5.236;2023-04-03T13:53:33;12.00;31.60
68215;DHT22;55036;52.138;5.236;2023-04-03T13:58:32;12.10;30.30
68215;DHT22;55036;52.138;5.236;2023-04-03T14:01:14;11.80;31.20
68215;DHT22;55036;52.138;5.236;2023-04-03T14:03:50;11.70;31.30
68215;DHT22;55036;52.138;5.236;2023-04-03T14:06:18;11.70;31.40
68215;DHT22;55036;52.138;5.236;2023-04-03T14:08:45;11.80;32.20
68215;DHT22;55036;52.138;5.236;2023-04-03T14:11:26;11.70;32.50
68215;DHT22;55036;52.138;5.236;2023-04-03T14:13:56;11.80;32.40
68215;DHT22;55036;52.138;5.236;2023-04-03T14:16:28;11.90;32.50
68215;DHT22;55036;52.138;5.236;2023-04-03T14:18:56;12.00;32.30
68215;DHT22;55036;52.138;5.236;2023-04-03T14:21:23;11.70;32.80
68215;DHT22;55036;52.138;5.236;2023-04-03T14:23:50;11.80;32.50
68215;DHT22;55036;52.138;5.236;2023-04-03T14:26:20;12.00;32.20
68215;DHT22;55036;52.138;5.236;2023-04-03T14:28:50;11.80;32.00
68215;DHT22;55036;52.138;5.236;2023-04-03T14:31:18;12.00;32.40
68215;DHT22;55036;52.138;5.236;2023-04-03T14:33:46;12.10;31.70
68215;DHT22;55036;52.138;5.236;2023-04-03T14:36:15;12.00;32.20
68215;DHT22;55036;52.138;5.236;2023-04-03T14:38:44;12.20;32.60
68215;DHT22;55036;52.138;5.236;2023-04-03T14:41:16;12.10;32.10
68215;DHT22;55036;52.138;5.236;2023-04-03T14:43:45;12.00;33.20
68215;DHT22;55036;52.138;5.236;2023-04-03T14:46:14;11.80;32.50
68215;DHT22;55036;52.138;5.236;2023-04-03T14:48:42;11.70;32.80
68215;DHT22;55036;52.138;5.236;2023-04-03T14:51:13;11.70;32.90
68215;DHT22;55036;52.138;5.236;2023-04-03T14:53:41;11.70;32.70
68215;DHT22;55036;52.138;5.236;2023-04-03T14:56:18;11.70;32.70
68215;DHT22;55036;52.138;5.236;2023-04-03T14:58:45;11.70;32.50
68215;DHT22;55036;52.138;5.236;2023-04-03T15:01:16;11.50;33.00
68215;DHT22;55036;52.138;5.236;2023-04-03T15:03:44;11.40;33.60
68215;DHT22;55036;52.138;5.236;2023-04-03T15:06:12;11.50;33.40
68215;DHT22;55036;52.138;5.236;2023-04-03T15:08:39;11.60;33.00
68215;DHT22;55036;52.138;5.236;2023-04-03T15:11:09;11.50;32.50
68215;DHT22;55036;52.138;5.236;2023-04-03T15:13:37;11.30;33.40
68215;DHT22;55036;52.138;5.236;2023-04-03T15:16:05;11.20;33.60
68215;DHT22;55036;52.138;5.236;2023-04-03T15:18:38;11.40;33.90
68215;DHT22;55036;52.138;5.236;2023-04-03T15:21:05;11.50;34.00
68215;DHT22;55036;52.138;5.236;2023-04-03T15:23:32;11.40;33.90
68215;DHT22;55036;52.138;5.236;2023-04-03T15:25:59;11.40;33.60
68215;DHT22;55036;52.138;5.236;2023-04-03T15:30:58;11.40;34.10
68215;DHT22;55036;52.138;5.236;2023-04-03T15:33:26;11.40;34.20
68215;DHT22;55036;52.138;5.236;2023-04-03T15:35:52;11.50;34.20
68215;DHT22;55036;52.138;5.236;2023-04-03T15:38:24;11.30;34.40
68215;DHT22;55036;52.138;5.236;2023-04-03T15:40:51;11.40;34.50
68215;DHT22;55036;52.138;5.236;2023-04-03T15:43:18;11.30;34.90
68215;DHT22;55036;52.138;5.236;2023-04-03T15:45:45;11.50;34.50
68215;DHT22;55036;52.138;5.236;2023-04-03T15:48:12;11.30;34.70
68215;DHT22;55036;52.138;5.236;2023-04-03T15:50:39;11.10;35.60
68215;DHT22;55036;52.138;5.236;2023-04-03T15:53:07;11.10;35.40
68215;DHT22;55036;52.138;5.236;2023-04-03T15:55:36;10.90;36.10
68215;DHT22;55036;52.138;5.236;2023-04-03T15:58:04;11.00;35.70
68215;DHT22;55036;52.138;5.236;2023-04-03T16:00:32;11.10;35.70
68215;DHT22;55036;52.138;5.236;2023-04-03T16:03:07;11.20;35.90
68215;DHT22;55036;52.138;5.236;2023-04-03T16:05:36;11.10;35.70
68215;DHT22;55036;52.138;5.236;2023-04-03T16:08:04;11.00;36.20
68215;DHT22;55036;52.138;5.236;2023-04-03T16:10:31;11.00;36.90
68215;DHT22;55036;52.138;5.236;2023-04-03T16:12:58;10.80;36.90
68215;DHT22;55036;52.138;5.236;2023-04-03T16:15:25;10.90;37.30
68215;DHT22;55036;52.138;5.236;2023-04-03T16:17:53;10.70;37.40
68215;DHT22;55036;52.138;5.236;2023-04-03T16:20:21;10.70;37.50
68215;DHT22;55036;52.138;5.236;2023-04-03T16:22:48;10.80;37.90
68215;DHT22;55036;52.138;5.236;2023-04-03T16:25:16;10.70;37.90
68215;DHT22;55036;52.138;5.236;2023-04-03T16:27:43;10.70;37.80
68215;DHT22;55036;52.138;5.236;2023-04-03T16:30:10;10.70;38.20
68215;DHT22;55036;52.138;5.236;2023-04-03T16:32:38;10.60;38.40
68215;DHT22;55036;52.138;5.236;2023-04-03T16:35:06;10.50;38.60
68215;DHT22;55036;52.138;5.236;2023-04-03T16:37:33;10.50;38.80
68215;DHT22;55036;52.138;5.236;2023-04-03T16:39:59;10.40;39.10
68215;DHT22;55036;52.138;5.236;2023-04-03T16:42:26;10.40;39.20
68215;DHT22;55036;52.138;5.236;2023-04-03T16:44:53;10.40;38.60
68215;DHT22;55036;52.138;5.236;2023-04-03T16:47:19;10.30;39.40
68215;DHT22;55036;52.138;5.236;2023-04-03T16:49:46;10.20;39.50
68215;DHT22;55036;52.138;5.236;2023-04-03T16:52:14;10.30;39.10
68215;DHT22;55036;52.138;5.236;2023-04-03T16:54:41;10.20;39.40
68215;DHT22;55036;52.138;5.236;2023-04-03T16:57:07;10.20;40.20
68215;DHT22;55036;52.138;5.236;2023-04-03T16:59:34;10.20;40.10
68215;DHT22;55036;52.138;5.236;2023-04-03T17:02:01;10.20;39.90
68215;DHT22;55036;52.138;5.236;2023-04-03T17:04:29;10.00;39.60
68215;DHT22;55036;52.138;5.236;2023-04-03T17:06:55;10.20;39.20
68215;DHT22;55036;52.138;5.236;2023-04-03T17:09:22;10.00;39.60
68215;DHT22;55036;52.138;5.236;2023-04-03T17:11:49;9.90;40.00
68215;DHT22;55036;52.138;5.236;2023-04-03T17:14:16;9.80;39.60
68215;DHT22;55036;52.138;5.236;2023-04-03T17:16:43;9.80;39.50
68215;DHT22;55036;52.138;5.236;2023-04-03T17:19:10;9.70;39.90
68215;DHT22;55036;52.138;5.236;2023-04-03T17:21:38;9.80;40.10
68215;DHT22;55036;52.138;5.236;2023-04-03T17:24:06;9.80;39.80
68215;DHT22;55036;52.138;5.236;2023-04-03T17:26:35;9.70;40.10
68215;DHT22;55036;52.138;5.236;2023-04-03T17:29:03;9.70;40.10
68215;DHT22;55036;52.138;5.236;2023-04-03T17:31:30;9.70;39.50
68215;DHT22;55036;52.138;5.236;2023-04-03T17:33:57;9.60;40.00